Time;durP1;ratioP1;P1;durP2;ratioP2;P2;SDS_P1;SDS_P2;PMS_P1;PMS_P2;Temp;Humidity;BMP_temperature;BMP_pressure;BME280_temperature;BME280_humidity;BME280_pressure;Samples;Min_cycle;Max_cycle;Signal;HPM_P1;HPM_P2
2022/08/23 00:01:45;;;;;;;;;;;21.80;81.50;;;;;;5116344;28;19941;-96
2022/08/23 00:04:14;;;;;;;;;;;21.70;81.80;;;;;;5097729;28;19939;-96
2022/08/23 00:06:44;;;;;;;;;;;21.60;81.20;;;;;;5097938;28;19965;-96
2022/08/23 00:09:11;;;;;;;;;;;21.60;82.20;;;;;;5096738;28;20012;-96
2022/08/23 00:11:42;;;;;;;;;;;21.70;81.90;;;;;;5099185;28;19962;-96
2022/08/23 00:14:18;;;;;;;;;;;21.80;81.60;;;;;;5102199;28;19939;-96
2022/08/23 00:16:52;;;;;;;;;;;21.70;81.70;;;;;;5119612;28;19949;-96
2022/08/23 00:19:20;;;;;;;;;;;21.50;81.80;;;;;;5101581;28;19930;-96
2022/08/23 00:21:47;;;;;;;;;;;21.50;82.20;;;;;;5101593;28;19943;-96
2022/08/23 00:24:13;;;;;;;;;;;21.30;82.80;;;;;;5100140;28;19955;-96
2022/08/23 00:26:48;;;;;;;;;;;21.20;83.60;;;;;;5118034;28;19940;-96
2022/08/23 00:29:15;;;;;;;;;;;21.10;83.80;;;;;;5116847;28;19962;-96
2022/08/23 00:31:45;;;;;;;;;;;21.00;83.20;;;;;;5095748;28;19990;-96
2022/08/23 00:34:12;;;;;;;;;;;20.80;83.50;;;;;;5095933;28;19968;-96
2022/08/23 00:36:43;;;;;;;;;;;20.80;83.80;;;;;;5095090;28;19955;-96
2022/08/23 00:39:10;;;;;;;;;;;20.70;84.40;;;;;;5095730;28;20449;-96
2022/08/23 00:41:36;;;;;;;;;;;20.70;84.80;;;;;;5095791;28;19943;-96
2022/08/23 00:49:38;;;;;;;;;;;20.80;84.90;;;;;;5097513;28;19950;-96
2022/08/23 00:52:10;;;;;;;;;;;20.80;85.20;;;;;;5096654;28;19968;-96
2022/08/23 00:54:40;;;;;;;;;;;20.80;85.00;;;;;;5098140;28;19949;-96
2022/08/23 00:57:12;;;;;;;;;;;20.80;85.00;;;;;;5098175;28;19945;-96
2022/08/23 00:59:38;;;;;;;;;;;20.80;84.90;;;;;;5095823;28;19945;-96
2022/08/23 01:02:05;;;;;;;;;;;20.80;84.90;;;;;;5096365;28;20011;-96
2022/08/23 01:04:36;;;;;;;;;;;20.70;85.30;;;;;;5096343;28;19944;-96
2022/08/23 01:07:11;;;;;;;;;;;20.50;85.60;;;;;;5096461;28;19924;-96
2022/08/23 01:09:41;;;;;;;;;;;20.50;85.60;;;;;;5097807;28;19937;-96
2022/08/23 01:12:13;;;;;;;;;;;20.50;86.20;;;;;;5096983;28;19946;-96
2022/08/23 01:14:43;;;;;;;;;;;20.50;85.60;;;;;;5095575;28;19949;-96
2022/08/23 01:17:15;;;;;;;;;;;20.60;85.40;;;;;;5093551;28;19951;-96
2022/08/23 01:19:53;;;;;;;;;;;20.50;85.80;;;;;;5095120;28;19968;-96
2022/08/23 01:22:27;;;;;;;;;;;20.50;86.30;;;;;;5095515;28;19982;-96
2022/08/23 01:24:54;;;;;;;;;;;20.20;86.20;;;;;;5094981;28;19940;-96
2022/08/23 01:27:20;;;;;;;;;;;20.00;87.00;;;;;;5093197;28;19944;-96
2022/08/23 01:29:49;;;;;;;;;;;20.00;86.80;;;;;;5094210;28;19936;-96
2022/08/23 01:32:15;;;;;;;;;;;20.00;86.80;;;;;;5094179;28;19972;-96
2022/08/23 01:34:42;;;;;;;;;;;19.90;87.40;;;;;;5076666;28;19970;-96
2022/08/23 01:37:08;;;;;;;;;;;19.80;87.60;;;;;;5077032;28;19955;-96
2022/08/23 01:39:35;;;;;;;;;;;19.90;87.80;;;;;;5076977;28;19994;-96
2022/08/23 01:42:01;;;;;;;;;;;19.80;87.90;;;;;;5076382;28;19949;-96
2022/08/23 01:44:28;;;;;;;;;;;19.90;87.90;;;;;;5094730;28;19941;-96
2022/08/23 01:46:55;;;;;;;;;;;20.00;87.90;;;;;;5096063;28;19940;-96
2022/08/23 01:49:22;;;;;;;;;;;20.00;88.00;;;;;;5077840;28;19943;-96
2022/08/23 01:51:48;;;;;;;;;;;20.20;87.70;;;;;;5078404;28;20011;-96
2022/08/23 01:54:16;;;;;;;;;;;20.20;87.60;;;;;;5078578;28;19956;-96
2022/08/23 01:56:45;;;;;;;;;;;20.30;87.10;;;;;;5078153;28;20005;-96
2022/08/23 01:59:12;;;;;;;;;;;20.30;87.30;;;;;;5094458;28;19982;-96
2022/08/23 02:01:39;;;;;;;;;;;20.10;86.90;;;;;;5077002;28;19944;-96
2022/08/23 02:04:05;;;;;;;;;;;19.90;87.50;;;;;;5076548;28;19942;-96
2022/08/23 02:06:31;;;;;;;;;;;19.90;87.90;;;;;;5076448;28;19951;-96
2022/08/23 02:09:00;;;;;;;;;;;20.00;87.10;;;;;;5076331;28;19951;-96
2022/08/23 02:11:27;;;;;;;;;;;20.10;86.90;;;;;;5076796;28;19959;-96
2022/08/23 02:13:55;;;;;;;;;;;20.00;87.00;;;;;;5094223;28;19999;-96
2022/08/23 02:16:23;;;;;;;;;;;20.10;86.90;;;;;;5076354;28;19949;-96
2022/08/23 02:18:50;;;;;;;;;;;20.20;86.50;;;;;;5095122;28;19971;-96
2022/08/23 02:21:19;;;;;;;;;;;20.30;86.30;;;;;;5078039;28;20007;-96
2022/08/23 02:23:50;;;;;;;;;;;20.30;85.90;;;;;;5078535;28;19949;-96
2022/08/23 02:26:17;;;;;;;;;;;20.20;86.00;;;;;;5077383;28;19952;-96
2022/08/23 02:28:43;;;;;;;;;;;20.00;86.30;;;;;;5078183;28;19952;-96
2022/08/23 02:34:05;;;;;;;;;;;19.90;86.70;;;;;;5435327;22;19976;-96
2022/08/23 02:36:32;;;;;;;;;;;19.80;86.80;;;;;;5078506;28;20021;-96
2022/08/23 02:39:01;;;;;;;;;;;19.80;86.50;;;;;;5078556;28;19949;-96
2022/08/23 02:41:30;;;;;;;;;;;19.80;86.40;;;;;;5063079;28;19940;-96
2022/08/23 02:43:59;;;;;;;;;;;19.90;86.10;;;;;;5080601;28;19954;-96
2022/08/23 02:46:26;;;;;;;;;;;19.80;86.30;;;;;;5080887;28;19992;-96
2022/08/23 02:48:54;;;;;;;;;;;19.90;86.30;;;;;;5097966;28;19946;-96
2022/08/23 02:51:24;;;;;;;;;;;19.90;86.00;;;;;;5079800;28;19946;-96
2022/08/23 02:53:50;;;;;;;;;;;19.90;86.00;;;;;;5079619;28;19943;-96
2022/08/23 02:56:19;;;;;;;;;;;19.90;86.10;;;;;;5078188;28;19978;-96
2022/08/23 02:58:53;;;;;;;;;;;20.00;85.60;;;;;;5079537;28;19951;-96
2022/08/23 03:01:27;;;;;;;;;;;20.00;85.50;;;;;;5079687;28;19934;-96
2022/08/23 03:03:57;;;;;;;;;;;19.90;85.50;;;;;;5079779;28;19945;-96
2022/08/23 03:06:24;;;;;;;;;;;19.90;85.40;;;;;;5096952;28;19946;-96
2022/08/23 03:09:00;;;;;;;;;;;19.90;85.40;;;;;;5097501;28;19938;-96
2022/08/23 03:11:30;;;;;;;;;;;19.80;85.10;;;;;;5097253;28;19959;-96
2022/08/23 03:14:00;;;;;;;;;;;19.80;85.00;;;;;;5097266;28;19944;-96
2022/08/23 03:16:38;;;;;;;;;;;19.60;85.70;;;;;;5097189;28;19940;-96
2022/08/23 03:19:08;;;;;;;;;;;19.50;86.90;;;;;;5079037;28;19940;-96
2022/08/23 03:21:38;;;;;;;;;;;19.60;87.10;;;;;;5079257;28;19923;-96
2022/08/23 03:24:14;;;;;;;;;;;19.60;86.40;;;;;;5079500;28;19950;-96
2022/08/23 03:26:42;;;;;;;;;;;19.70;85.80;;;;;;5077147;28;19942;-96
2022/08/23 03:29:13;;;;;;;;;;;19.70;85.50;;;;;;5079845;28;19947;-96
2022/08/23 03:31:41;;;;;;;;;;;19.40;85.20;;;;;;5062596;28;20431;-96
2022/08/23 03:34:09;;;;;;;;;;;19.20;85.80;;;;;;5075801;28;20000;-96
2022/08/23 03:36:38;;;;;;;;;;;19.20;86.40;;;;;;5075310;28;19963;-96
2022/08/23 03:39:10;;;;;;;;;;;19.30;86.60;;;;;;5075436;28;19956;-96
2022/08/23 03:41:43;;;;;;;;;;;19.30;86.40;;;;;;5076448;28;19972;-96
2022/08/23 03:44:10;;;;;;;;;;;19.40;86.10;;;;;;5074007;28;19948;-97
2022/08/23 03:46:38;;;;;;;;;;;19.50;85.80;;;;;;5079039;28;20260;-96
2022/08/23 03:49:11;;;;;;;;;;;19.50;85.30;;;;;;5080684;28;19955;-96
2022/08/23 03:51:51;;;;;;;;;;;19.50;85.30;;;;;;5081325;28;19977;-96
2022/08/23 03:54:22;;;;;;;;;;;19.50;85.30;;;;;;5080704;28;19945;-96
2022/08/23 03:57:01;;;;;;;;;;;19.50;85.10;;;;;;5081042;28;19952;-96
2022/08/23 03:59:36;;;;;;;;;;;19.50;85.10;;;;;;5077910;28;19949;-96
2022/08/23 04:02:09;;;;;;;;;;;19.50;84.80;;;;;;5078157;28;19942;-96
2022/08/23 04:04:37;;;;;;;;;;;19.40;84.80;;;;;;5078733;28;19926;-96
2022/08/23 04:07:07;;;;;;;;;;;19.40;84.80;;;;;;5079100;28;19944;-96
2022/08/23 04:09:35;;;;;;;;;;;19.30;85.00;;;;;;5080139;28;19950;-96
2022/08/23 04:12:04;;;;;;;;;;;19.30;85.20;;;;;;5079238;28;19953;-96
2022/08/23 04:15:03;;;;;;;;;;;19.20;85.60;;;;;;5080611;28;19953;-96
2022/08/23 04:17:32;;;;;;;;;;;19.20;85.80;;;;;;5079909;28;19946;-96
2022/08/23 04:20:02;;;;;;;;;;;19.20;86.10;;;;;;5080583;28;19962;-96
2022/08/23 04:22:45;;;;;;;;;;;19.10;86.20;;;;;;5081298;28;19932;-96
2022/08/23 04:25:18;;;;;;;;;;;19.10;86.30;;;;;;5077874;28;19947;-96
2022/08/23 04:27:45;;;;;;;;;;;19.30;85.80;;;;;;5076750;28;19933;-96
2022/08/23 04:30:29;;;;;;;;;;;19.20;85.60;;;;;;5080657;28;19927;-96
2022/08/23 04:33:12;;;;;;;;;;;19.20;85.50;;;;;;5085644;28;19979;-96
2022/08/23 04:35:56;;;;;;;;;;;19.20;85.70;;;;;;5100907;28;19946;-96
2022/08/23 04:38:25;;;;;;;;;;;19.30;85.10;;;;;;5076883;28;19959;-96
2022/08/23 04:43:43;;;;;;;;;;;19.30;84.50;;;;;;5100946;28;19950;-96
2022/08/23 04:46:16;;;;;;;;;;;19.20;84.60;;;;;;5100799;28;20006;-96
2022/08/23 04:48:45;;;;;;;;;;;19.10;84.50;;;;;;5066870;28;19935;-96
2022/08/23 04:51:15;;;;;;;;;;;19.10;84.50;;;;;;5083414;28;19955;-96
2022/08/23 04:53:51;;;;;;;;;;;19.20;84.20;;;;;;5083510;28;19942;-96
2022/08/23 04:56:22;;;;;;;;;;;19.30;84.10;;;;;;5081069;28;20090;-96
2022/08/23 04:58:53;;;;;;;;;;;19.30;83.90;;;;;;5083143;28;19949;-96
2022/08/23 05:01:25;;;;;;;;;;;19.40;83.40;;;;;;5099551;28;19931;-96
2022/08/23 05:03:54;;;;;;;;;;;19.40;83.30;;;;;;5065303;28;19929;-96
2022/08/23 05:06:23;;;;;;;;;;;19.40;83.10;;;;;;5081955;28;19947;-96
2022/08/23 05:08:50;;;;;;;;;;;19.30;83.30;;;;;;5081992;28;19936;-96
2022/08/23 05:11:23;;;;;;;;;;;19.30;83.10;;;;;;5081768;28;19975;-96
2022/08/23 05:13:55;;;;;;;;;;;19.30;83.50;;;;;;5082524;28;19934;-96
2022/08/23 05:16:27;;;;;;;;;;;19.20;83.30;;;;;;5080613;28;20000;-96
2022/08/23 05:19:10;;;;;;;;;;;19.10;83.00;;;;;;5100523;28;19951;-96
2022/08/23 05:21:59;;;;;;;;;;;19.10;82.80;;;;;;5085848;28;19975;-96
2022/08/23 05:24:30;;;;;;;;;;;19.10;83.20;;;;;;5082996;28;20010;-96
2022/08/23 05:27:02;;;;;;;;;;;19.30;83.40;;;;;;5078571;28;19931;-96
2022/08/23 05:29:37;;;;;;;;;;;19.30;83.20;;;;;;5082700;28;19930;-96
2022/08/23 05:52:58;;;;;;;;;;;19.50;80.40;;;;;;5742657;22;19986;-96
2022/08/23 05:55:27;;;;;;;;;;;19.50;79.40;;;;;;5096771;28;19971;-96
2022/08/23 05:58:01;;;;;;;;;;;19.60;79.70;;;;;;5098783;28;19944;-96
2022/08/23 06:00:31;;;;;;;;;;;19.80;80.40;;;;;;5081276;28;19953;-96
2022/08/23 06:03:09;;;;;;;;;;;19.90;80.00;;;;;;5087969;28;19957;-96
2022/08/23 06:05:57;;;;;;;;;;;20.10;80.10;;;;;;5096157;28;20451;-96
2022/08/23 06:08:45;;;;;;;;;;;20.40;75.30;;;;;;5094673;28;19934;-96
2022/08/23 06:11:18;;;;;;;;;;;20.50;75.70;;;;;;5073512;28;20040;-96
2022/08/23 06:13:53;;;;;;;;;;;20.60;76.20;;;;;;5074783;28;19980;-96
2022/08/23 06:16:21;;;;;;;;;;;20.60;75.50;;;;;;5075207;28;19941;-96
2022/08/23 06:18:48;;;;;;;;;;;20.70;76.00;;;;;;5090817;28;19945;-96
2022/08/23 06:21:18;;;;;;;;;;;20.70;75.50;;;;;;5077767;28;19944;-96
2022/08/23 06:23:52;;;;;;;;;;;20.70;74.90;;;;;;5098141;28;19931;-95
2022/08/23 06:26:22;;;;;;;;;;;20.70;74.60;;;;;;5096875;28;19944;-96
2022/08/23 06:29:07;;;;;;;;;;;20.80;74.30;;;;;;5097124;28;19942;-96
2022/08/23 06:31:45;;;;;;;;;;;20.90;73.90;;;;;;5081031;28;19968;-96
2022/08/23 06:34:24;;;;;;;;;;;20.90;74.20;;;;;;5097929;28;19966;-96
2022/08/23 06:37:25;;;;;;;;;;;21.00;72.80;;;;;;5094548;28;19956;-96
2022/08/23 06:39:51;;;;;;;;;;;21.10;73.30;;;;;;5069100;28;19952;-96
2022/08/23 06:42:17;;;;;;;;;;;21.20;72.70;;;;;;5074168;28;19939;-96
2022/08/23 06:44:44;;;;;;;;;;;21.30;70.10;;;;;;5089827;28;19946;-96
2022/08/23 06:47:09;;;;;;;;;;;21.30;69.70;;;;;;5074860;28;19941;-96
2022/08/23 06:49:36;;;;;;;;;;;21.50;69.70;;;;;;5092141;28;19939;-96
2022/08/23 06:52:05;;;;;;;;;;;21.60;67.90;;;;;;5091156;28;19960;-96
2022/08/23 06:54:33;;;;;;;;;;;21.90;65.40;;;;;;5074470;28;20067;-96
2022/08/23 06:57:01;;;;;;;;;;;22.10;65.70;;;;;;5075936;28;19952;-96
2022/08/23 06:59:28;;;;;;;;;;;22.30;65.70;;;;;;5092923;28;19947;-96
2022/08/23 07:01:56;;;;;;;;;;;22.50;64.40;;;;;;5073676;28;19966;-96
2022/08/23 07:04:29;;;;;;;;;;;22.70;63.20;;;;;;5087737;28;19942;-96
2022/08/23 07:06:56;;;;;;;;;;;22.80;62.80;;;;;;5088429;28;19941;-96
2022/08/23 07:09:22;;;;;;;;;;;22.90;61.20;;;;;;5088018;28;19946;-96
2022/08/23 07:11:48;;;;;;;;;;;22.90;60.60;;;;;;5088102;28;19966;-96
2022/08/23 07:14:18;;;;;;;;;;;22.90;61.30;;;;;;5088457;28;19949;-96
2022/08/23 07:16:46;;;;;;;;;;;23.00;60.90;;;;;;5071188;28;19947;-96
2022/08/23 07:19:13;;;;;;;;;;;23.00;61.30;;;;;;5088752;28;19999;-96
2022/08/23 07:21:39;;;;;;;;;;;23.10;61.30;;;;;;5093150;28;19941;-96
2022/08/23 07:24:05;;;;;;;;;;;23.20;61.40;;;;;;5073970;28;20000;-96
2022/08/23 07:26:31;;;;;;;;;;;23.20;61.70;;;;;;5089288;28;19943;-96
2022/08/23 07:28:57;;;;;;;;;;;23.30;61.80;;;;;;5072833;28;19941;-96
2022/08/23 07:31:25;;;;;;;;;;;23.30;61.60;;;;;;5075191;28;19961;-96
2022/08/23 07:33:52;;;;;;;;;;;23.50;61.20;;;;;;5090999;28;19981;-96
2022/08/23 07:36:19;;;;;;;;;;;23.60;61.40;;;;;;5091173;28;19956;-96
2022/08/23 07:38:45;;;;;;;;;;;23.70;61.50;;;;;;5074103;28;19956;-96
2022/08/23 07:41:11;;;;;;;;;;;23.80;60.90;;;;;;5092067;28;19944;-96
2022/08/23 07:43:38;;;;;;;;;;;23.80;61.40;;;;;;5077446;28;19996;-96
2022/08/23 07:46:04;;;;;;;;;;;23.90;60.40;;;;;;5076667;28;19949;-96
2022/08/23 07:48:33;;;;;;;;;;;24.00;59.80;;;;;;5092482;28;19944;-96
2022/08/23 07:51:01;;;;;;;;;;;24.20;60.40;;;;;;5077796;28;20050;-96
2022/08/23 07:53:28;;;;;;;;;;;24.30;61.20;;;;;;5097106;28;19982;-96
2022/08/23 07:55:54;;;;;;;;;;;24.40;60.90;;;;;;5080199;28;19942;-96
2022/08/23 07:58:25;;;;;;;;;;;24.50;60.60;;;;;;5096602;28;19948;-96
2022/08/23 08:00:52;;;;;;;;;;;24.60;60.50;;;;;;5098193;28;19932;-96
2022/08/23 08:03:21;;;;;;;;;;;24.80;60.20;;;;;;5079754;28;19953;-96
2022/08/23 08:05:51;;;;;;;;;;;24.90;61.10;;;;;;5079275;28;20342;-96
2022/08/23 08:08:18;;;;;;;;;;;24.90;61.90;;;;;;5079668;28;19992;-96
2022/08/23 08:10:44;;;;;;;;;;;25.00;62.10;;;;;;5080638;28;19952;-96
2022/08/23 08:13:11;;;;;;;;;;;25.00;61.70;;;;;;5079178;28;19940;-96
2022/08/23 08:15:41;;;;;;;;;;;25.00;61.00;;;;;;5097536;28;19951;-96
2022/08/23 08:18:07;;;;;;;;;;;25.00;62.90;;;;;;5080253;28;19956;-96
2022/08/23 08:20:38;;;;;;;;;;;25.00;62.00;;;;;;5097969;28;19945;-96
2022/08/23 08:23:07;;;;;;;;;;;25.00;63.30;;;;;;5080661;28;19990;-96
2022/08/23 08:25:39;;;;;;;;;;;25.10;62.60;;;;;;5079247;28;19944;-96
2022/08/23 08:28:06;;;;;;;;;;;25.10;62.50;;;;;;5097356;28;19951;-96
2022/08/23 08:30:41;;;;;;;;;;;25.20;62.60;;;;;;5097519;28;19946;-96
2022/08/23 08:33:09;;;;;;;;;;;25.20;62.70;;;;;;5063386;28;19951;-96
2022/08/23 08:35:39;;;;;;;;;;;25.20;63.40;;;;;;5062141;28;19979;-96
2022/08/23 08:38:05;;;;;;;;;;;25.30;63.50;;;;;;5077630;28;19953;-96
2022/08/23 08:40:35;;;;;;;;;;;25.30;62.90;;;;;;5096249;28;19942;-96
2022/08/23 08:43:29;;;;;;;;;;;25.40;63.00;;;;;;5079652;28;19943;-96
2022/08/23 08:45:55;;;;;;;;;;;25.50;63.10;;;;;;5079691;28;19931;-96
2022/08/23 08:48:24;;;;;;;;;;;25.60;62.30;;;;;;5080022;28;19945;-96
2022/08/23 08:50:56;;;;;;;;;;;25.70;60.60;;;;;;5079189;28;20405;-96
2022/08/23 08:53:38;;;;;;;;;;;25.70;61.20;;;;;;5061639;28;19957;-97
2022/08/23 08:56:30;;;;;;;;;;;25.80;61.30;;;;;;5078798;28;19975;-96
2022/08/23 08:59:10;;;;;;;;;;;25.80;62.20;;;;;;5080859;28;19947;-96
2022/08/23 09:01:37;;;;;;;;;;;25.90;62.00;;;;;;5097413;28;19942;-96
2022/08/23 09:04:08;;;;;;;;;;;26.00;61.80;;;;;;5098047;28;20012;-96
2022/08/23 09:06:52;;;;;;;;;;;26.00;62.10;;;;;;5098189;28;19971;-96
2022/08/23 09:09:35;;;;;;;;;;;26.10;62.20;;;;;;5097530;28;19946;-96
2022/08/23 09:12:02;;;;;;;;;;;26.10;60.40;;;;;;5097560;28;19963;-96
2022/08/23 09:14:40;;;;;;;;;;;26.10;61.60;;;;;;5097838;28;19959;-96
2022/08/23 09:17:18;;;;;;;;;;;26.20;62.40;;;;;;5098264;28;19986;-96
2022/08/23 09:19:50;;;;;;;;;;;26.30;62.30;;;;;;5098985;28;19981;-97
2022/08/23 09:22:50;;;;;;;;;;;26.30;60.50;;;;;;5094907;28;19939;-96
2022/08/23 09:25:17;;;;;;;;;;;26.20;61.10;;;;;;5097551;28;19954;-96
2022/08/23 09:27:57;;;;;;;;;;;26.30;59.30;;;;;;5098281;28;19944;-96
2022/08/23 09:30:44;;;;;;;;;;;26.50;57.30;;;;;;5092973;28;19930;-96
2022/08/23 09:33:17;;;;;;;;;;;26.60;56.90;;;;;;5096695;28;19953;-96
2022/08/23 09:36:05;;;;;;;;;;;26.70;56.20;;;;;;5095495;28;19923;-96
2022/08/23 09:38:49;;;;;;;;;;;26.70;57.00;;;;;;5081950;28;19967;-96
2022/08/23 09:41:46;;;;;;;;;;;26.80;58.90;;;;;;5098463;28;19982;-96
2022/08/23 09:44:29;;;;;;;;;;;26.80;57.10;;;;;;5092356;28;19935;-96
2022/08/23 09:47:15;;;;;;;;;;;27.00;58.00;;;;;;5098062;28;19943;-96
2022/08/23 11:11:31;;;;;;;;;;;29.70;46.90;;;;;;5433060;22;19976;-96
2022/08/23 11:14:07;;;;;;;;;;;29.70;45.20;;;;;;5079534;28;19954;-96
2022/08/23 11:16:39;;;;;;;;;;;29.90;45.80;;;;;;5080760;28;19941;-96
2022/08/23 11:19:34;;;;;;;;;;;29.70;46.80;;;;;;5097640;28;20019;-96
2022/08/23 11:22:21;;;;;;;;;;;29.80;48.30;;;;;;5097094;28;19997;-96
2022/08/23 11:25:23;;;;;;;;;;;29.80;49.40;;;;;;5097717;28;19949;-96
2022/08/23 11:28:11;;;;;;;;;;;30.00;49.30;;;;;;5079597;28;19930;-96
2022/08/23 11:30:43;;;;;;;;;;;30.00;46.90;;;;;;5066424;28;19965;-96
2022/08/23 11:33:17;;;;;;;;;;;29.40;46.80;;;;;;5098154;28;19944;-96
2022/08/23 11:36:20;;;;;;;;;;;29.80;50.90;;;;;;5098118;28;19967;-96
2022/08/23 11:38:57;;;;;;;;;;;30.20;46.80;;;;;;5080596;28;19949;-96
2022/08/23 11:41:30;;;;;;;;;;;30.00;45.90;;;;;;5077337;28;19930;-96
2022/08/23 11:49:37;;;;;;;;;;;30.40;46.80;;;;;;5735682;22;19973;-96
2022/08/23 12:00:20;;;;;;;;;;;31.50;42.60;;;;;;5311703;22;19979;-96
2022/08/23 12:05:56;;;;;;;;;;;31.10;42.70;;;;;;5859403;22;19956;-96
2022/08/23 12:11:23;;;;;;;;;;;31.40;42.00;;;;;;5440955;22;19987;-96
2022/08/23 12:14:36;;;;;;;;;;;31.70;42.30;;;;;;5445962;22;19974;-96
2022/08/23 12:22:15;;;;;;;;;;;32.10;41.50;;;;;;5630994;22;19987;-96
2022/08/23 12:24:44;;;;;;;;;;;32.60;42.20;;;;;;5069771;28;19964;-96
2022/08/23 12:27:28;;;;;;;;;;;32.70;39.10;;;;;;5085825;28;19954;-96
2022/08/23 12:29:53;;;;;;;;;;;32.70;40.90;;;;;;5086625;28;19938;-96
2022/08/23 12:32:38;;;;;;;;;;;32.60;41.10;;;;;;5085855;28;19956;-96
2022/08/23 12:35:29;;;;;;;;;;;32.30;39.80;;;;;;5098053;28;20030;-96
2022/08/23 13:11:56;;;;;;;;;;;33.10;39.40;;;;;;5681350;22;19981;-96
2022/08/23 13:14:44;;;;;;;;;;;34.00;39.50;;;;;;5101052;28;19928;-96
2022/08/23 13:17:13;;;;;;;;;;;34.70;36.50;;;;;;5099959;28;19947;-96
2022/08/23 13:19:39;;;;;;;;;;;35.20;36.30;;;;;;5118132;28;20404;-96
2022/08/23 13:22:20;;;;;;;;;;;35.70;35.80;;;;;;5101241;28;19945;-96
2022/08/23 13:25:06;;;;;;;;;;;34.70;36.60;;;;;;5101858;28;20409;-96
2022/08/23 13:27:48;;;;;;;;;;;34.40;38.40;;;;;;5118545;28;19948;-96
2022/08/23 13:30:14;;;;;;;;;;;34.30;37.10;;;;;;5102100;28;19947;-96
2022/08/23 13:32:45;;;;;;;;;;;33.90;38.30;;;;;;5114302;28;19978;-96
2022/08/23 13:35:22;;;;;;;;;;;34.40;37.70;;;;;;5112343;28;19941;-96
2022/08/23 13:37:48;;;;;;;;;;;35.40;36.60;;;;;;5108610;28;19964;-96
2022/08/23 13:40:24;;;;;;;;;;;36.90;34.20;;;;;;5107853;28;19977;-96
2022/08/23 13:42:54;;;;;;;;;;;37.70;33.40;;;;;;5088316;28;19952;-96
2022/08/23 13:45:23;;;;;;;;;;;38.00;32.20;;;;;;5104614;28;19948;-96
2022/08/23 13:47:52;;;;;;;;;;;38.10;31.30;;;;;;5105212;28;19944;-96
2022/08/23 13:50:22;;;;;;;;;;;38.50;32.20;;;;;;5086800;28;19974;-96
2022/08/23 13:52:49;;;;;;;;;;;39.20;30.30;;;;;;5106823;28;19973;-96
2022/08/23 13:55:15;;;;;;;;;;;39.70;29.80;;;;;;5088353;28;19944;-96
2022/08/23 13:57:40;;;;;;;;;;;39.60;28.90;;;;;;5084122;28;19947;-96
2022/08/23 14:00:09;;;;;;;;;;;38.90;30.10;;;;;;5106289;28;19964;-96
2022/08/23 14:02:36;;;;;;;;;;;38.20;30.20;;;;;;5085998;28;20398;-96
2022/08/23 14:05:08;;;;;;;;;;;37.40;31.50;;;;;;5090133;28;19942;-96
2022/08/23 14:07:39;;;;;;;;;;;35.90;34.00;;;;;;5106001;28;20030;-96
2022/08/23 14:10:05;;;;;;;;;;;34.90;34.60;;;;;;5103686;28;19940;-96
2022/08/23 14:12:32;;;;;;;;;;;34.90;34.40;;;;;;5106106;28;20045;-96
2022/08/23 14:14:58;;;;;;;;;;;34.80;34.20;;;;;;5107292;28;19958;-96
2022/08/23 14:17:24;;;;;;;;;;;34.40;34.90;;;;;;5102841;28;19939;-96
2022/08/23 14:19:57;;;;;;;;;;;34.20;34.80;;;;;;5112804;28;19989;-96
2022/08/23 14:22:23;;;;;;;;;;;34.70;34.10;;;;;;5095678;28;19968;-96
2022/08/23 14:24:49;;;;;;;;;;;35.10;33.20;;;;;;5094134;28;19977;-96
2022/08/23 14:27:23;;;;;;;;;;;35.20;33.60;;;;;;5110317;28;19946;-96
2022/08/23 14:29:49;;;;;;;;;;;35.30;33.00;;;;;;5090657;28;19947;-96
2022/08/23 14:32:21;;;;;;;;;;;35.90;32.00;;;;;;5075555;28;20004;-96
2022/08/23 14:34:47;;;;;;;;;;;36.40;31.80;;;;;;5093756;28;20003;-96
2022/08/23 14:37:13;;;;;;;;;;;37.30;29.10;;;;;;5093784;28;19961;-96
2022/08/23 14:39:42;;;;;;;;;;;37.60;30.00;;;;;;5094933;28;20008;-96
2022/08/23 14:42:08;;;;;;;;;;;37.10;29.70;;;;;;5093408;28;19977;-96
2022/08/23 14:44:34;;;;;;;;;;;36.10;31.10;;;;;;5094474;28;19939;-96
2022/08/23 14:47:00;;;;;;;;;;;36.20;31.50;;;;;;5094269;28;19942;-97
2022/08/23 14:49:26;;;;;;;;;;;36.80;30.00;;;;;;5112520;28;19984;-96
2022/08/23 14:51:53;;;;;;;;;;;37.20;30.60;;;;;;5095364;28;19962;-96
2022/08/23 14:54:24;;;;;;;;;;;37.70;30.10;;;;;;5097212;28;19941;-96
2022/08/23 14:56:51;;;;;;;;;;;38.30;29.90;;;;;;5102106;28;19942;-96
2022/08/23 14:59:18;;;;;;;;;;;37.60;31.20;;;;;;5095595;28;19944;-96
2022/08/23 15:01:46;;;;;;;;;;;37.40;30.80;;;;;;5095949;28;19942;-96
2022/08/23 15:04:16;;;;;;;;;;;38.00;30.50;;;;;;5113558;28;19941;-96
2022/08/23 15:06:46;;;;;;;;;;;38.50;29.80;;;;;;5097429;28;19943;-96
2022/08/23 15:09:14;;;;;;;;;;;38.20;29.00;;;;;;5095208;28;19924;-96
2022/08/23 15:11:41;;;;;;;;;;;38.00;31.50;;;;;;5096492;28;19984;-96
2022/08/23 15:14:07;;;;;;;;;;;38.70;31.80;;;;;;5084611;28;20035;-96
2022/08/23 15:16:33;;;;;;;;;;;39.00;30.30;;;;;;5080154;28;19976;-96
2022/08/23 15:18:58;;;;;;;;;;;38.90;30.70;;;;;;5082934;28;19981;-96
2022/08/23 15:21:24;;;;;;;;;;;39.90;28.80;;;;;;5083732;28;20029;-96
2022/08/23 15:23:50;;;;;;;;;;;40.10;29.10;;;;;;5083955;28;20002;-96
2022/08/23 15:26:18;;;;;;;;;;;40.20;28.90;;;;;;5085641;28;19945;-96
2022/08/23 15:28:44;;;;;;;;;;;40.40;27.60;;;;;;5087511;28;19967;-96
2022/08/23 15:31:11;;;;;;;;;;;40.40;27.90;;;;;;5086576;28;19968;-96
2022/08/23 15:33:37;;;;;;;;;;;40.90;26.50;;;;;;5085694;28;19946;-96
2022/08/23 15:36:05;;;;;;;;;;;40.80;27.00;;;;;;5084432;28;19997;-96
2022/08/23 15:38:31;;;;;;;;;;;40.70;26.90;;;;;;5084417;28;19949;-96
2022/08/23 15:40:56;;;;;;;;;;;40.40;27.70;;;;;;5083400;28;19952;-96
2022/08/23 15:43:23;;;;;;;;;;;39.70;27.70;;;;;;5086184;28;20021;-96
2022/08/23 15:45:49;;;;;;;;;;;39.30;27.80;;;;;;5084829;28;19951;-96
2022/08/23 15:48:24;;;;;;;;;;;39.10;28.80;;;;;;5084383;28;19931;-96
2022/08/23 15:50:49;;;;;;;;;;;39.10;27.80;;;;;;5086089;28;19946;-96
2022/08/23 15:53:15;;;;;;;;;;;38.50;29.00;;;;;;5084632;28;20367;-96
2022/08/23 15:55:42;;;;;;;;;;;38.00;29.40;;;;;;5085597;28;19941;-96
2022/08/23 15:58:12;;;;;;;;;;;37.70;30.20;;;;;;5085273;28;19948;-96
2022/08/23 16:00:37;;;;;;;;;;;37.60;30.20;;;;;;5086658;28;20466;-96
2022/08/23 16:03:03;;;;;;;;;;;37.10;31.00;;;;;;5086598;28;19970;-96
2022/08/23 16:05:29;;;;;;;;;;;37.00;31.30;;;;;;5087869;28;19950;-96
2022/08/23 16:07:55;;;;;;;;;;;37.30;31.10;;;;;;5079957;28;20329;-96
2022/08/23 16:10:21;;;;;;;;;;;37.40;30.30;;;;;;5078307;28;19937;-96
2022/08/23 16:12:46;;;;;;;;;;;37.10;30.10;;;;;;5077665;28;20424;-96
2022/08/23 16:15:12;;;;;;;;;;;37.00;30.50;;;;;;5080091;28;20409;-96
2022/08/23 16:17:38;;;;;;;;;;;37.00;30.50;;;;;;5080321;28;19942;-96
2022/08/23 16:20:05;;;;;;;;;;;37.00;30.70;;;;;;5080497;28;19950;-96
2022/08/23 16:22:30;;;;;;;;;;;36.80;31.00;;;;;;5080328;28;19948;-96
2022/08/23 16:24:59;;;;;;;;;;;36.60;30.70;;;;;;5079624;28;19943;-96
2022/08/23 16:27:25;;;;;;;;;;;36.40;31.70;;;;;;5079809;28;19985;-96
2022/08/23 16:29:51;;;;;;;;;;;36.20;31.50;;;;;;5078189;28;19946;-96
2022/08/23 16:32:16;;;;;;;;;;;35.90;32.30;;;;;;5077487;28;20002;-96
2022/08/23 16:34:42;;;;;;;;;;;35.70;32.50;;;;;;5077556;28;20325;-96
2022/08/23 16:37:08;;;;;;;;;;;35.50;33.30;;;;;;5077347;28;19953;-96
2022/08/23 16:39:35;;;;;;;;;;;35.20;33.70;;;;;;5077548;28;19942;-96
2022/08/23 16:42:03;;;;;;;;;;;34.70;34.20;;;;;;5078304;28;19961;-96
2022/08/23 16:44:29;;;;;;;;;;;33.90;35.90;;;;;;5080328;28;20381;-96
2022/08/23 16:46:54;;;;;;;;;;;33.50;36.80;;;;;;5077677;28;19943;-96
2022/08/23 16:49:20;;;;;;;;;;;33.10;36.20;;;;;;5078946;28;19966;-96
2022/08/23 16:51:46;;;;;;;;;;;32.70;37.90;;;;;;5078650;28;20328;-96
2022/08/23 16:54:11;;;;;;;;;;;32.50;38.60;;;;;;5078480;28;19946;-96
2022/08/23 16:56:38;;;;;;;;;;;32.20;39.20;;;;;;5078455;28;19955;-96
2022/08/23 16:59:05;;;;;;;;;;;32.00;38.80;;;;;;5076551;28;19944;-96
2022/08/23 17:01:42;;;;;;;;;;;32.00;39.40;;;;;;5074863;28;19946;-96
2022/08/23 17:04:07;;;;;;;;;;;31.90;39.40;;;;;;5076449;28;19940;-96
2022/08/23 17:06:33;;;;;;;;;;;31.70;40.30;;;;;;5076405;28;20033;-96
2022/08/23 17:08:58;;;;;;;;;;;31.30;40.90;;;;;;5074751;28;19941;-96
2022/08/23 17:11:24;;;;;;;;;;;31.20;41.80;;;;;;5074472;28;19975;-96
2022/08/23 17:13:50;;;;;;;;;;;31.00;41.60;;;;;;5076332;28;19939;-96
2022/08/23 17:16:16;;;;;;;;;;;30.80;42.40;;;;;;5075908;28;20044;-96
2022/08/23 17:18:42;;;;;;;;;;;30.60;42.20;;;;;;5074612;28;19952;-96
2022/08/23 17:21:08;;;;;;;;;;;30.60;42.40;;;;;;5076316;28;19934;-96
2022/08/23 17:23:33;;;;;;;;;;;30.50;42.50;;;;;;5075770;28;19938;-96
2022/08/23 17:25:59;;;;;;;;;;;30.30;42.20;;;;;;5075897;28;20019;-96
2022/08/23 17:28:25;;;;;;;;;;;30.00;42.30;;;;;;5075520;28;20027;-96
2022/08/23 17:30:50;;;;;;;;;;;29.90;43.40;;;;;;5076052;28;20002;-96